Time;durP1;ratioP1;P1;durP2;ratioP2;P2;SDS_P1;SDS_P2;PMS_P1;PMS_P2;Temp;Humidity;BMP_temperature;BMP_pressure;BME280_temperature;BME280_humidity;BME280_pressure;Samples;Min_cycle;Max_cycle;Signal;HPM_P1;HPM_P2
2022/10/27 00:00:56;;;;;;;5.47;2.47;;;12.00;99.90;;;;;;5050392;28;20625;-49
2022/10/27 00:03:23;;;;;;;2.00;1.70;;;12.00;99.90;;;;;;5047268;28;20207;-51
2022/10/27 00:05:50;;;;;;;3.37;1.83;;;12.10;99.90;;;;;;5035213;28;20232;-50
2022/10/27 00:08:19;;;;;;;4.33;1.70;;;12.00;99.90;;;;;;5033587;28;20249;-49
2022/10/27 00:10:57;;;;;;;4.93;2.20;;;12.00;99.90;;;;;;5045012;28;20216;-49
2022/10/27 00:13:24;;;;;;;2.83;2.57;;;11.90;99.90;;;;;;5046225;28;20260;-49
2022/10/27 00:15:57;;;;;;;3.83;2.07;;;11.90;99.90;;;;;;5052112;28;20216;-50
2022/10/27 00:18:24;;;;;;;1.90;1.47;;;11.80;99.90;;;;;;5044044;28;20220;-49
2022/10/27 00:20:58;;;;;;;4.57;1.77;;;11.80;99.90;;;;;;5042844;28;20207;-49
2022/10/27 00:23:25;;;;;;;2.67;1.50;;;11.80;99.90;;;;;;5034954;28;20232;-49
2022/10/27 00:25:54;;;;;;;3.03;1.27;;;11.70;99.90;;;;;;5045076;28;20229;-49
2022/10/27 00:28:22;;;;;;;3.50;1.90;;;11.70;99.90;;;;;;5053395;28;20258;-50
2022/10/27 00:30:56;;;;;;;4.63;1.83;;;11.70;99.90;;;;;;5050385;28;20216;-50
2022/10/27 00:33:23;;;;;;;2.23;1.63;;;11.70;99.90;;;;;;5041925;28;20232;-49
2022/10/27 00:35:50;;;;;;;4.87;1.87;;;11.80;99.90;;;;;;5044020;28;20235;-49
2022/10/27 00:38:17;;;;;;;2.77;1.30;;;11.90;99.90;;;;;;5052118;28;20209;-49
2022/10/27 00:40:44;;;;;;;3.43;1.63;;;11.90;99.90;;;;;;5043611;28;20262;-49
2022/10/27 00:43:27;;;;;;;1.87;1.17;;;11.80;99.90;;;;;;5033228;28;20202;-51
2022/10/27 00:45:59;;;;;;;7.10;2.40;;;11.80;99.90;;;;;;5033079;28;20720;-50
2022/10/27 00:48:27;;;;;;;9.00;2.90;;;11.70;99.90;;;;;;5041686;28;20205;-49
2022/10/27 00:50:54;;;;;;;5.93;3.20;;;11.60;99.90;;;;;;5034054;28;20205;-51
2022/10/27 00:53:22;;;;;;;4.47;3.67;;;11.50;99.90;;;;;;5038509;28;20224;-50
2022/10/27 00:55:49;;;;;;;3.60;3.20;;;11.50;99.90;;;;;;5052940;28;20250;-50
2022/10/27 00:58:18;;;;;;;9.23;3.70;;;11.40;99.90;;;;;;5051897;28;20202;-50
2022/10/27 01:00:47;;;;;;;3.53;3.23;;;11.30;99.90;;;;;;5041868;28;20214;-49
2022/10/27 01:03:18;;;;;;;4.87;2.83;;;11.20;99.90;;;;;;5052282;28;20241;-50
2022/10/27 01:05:46;;;;;;;5.67;3.30;;;11.10;99.90;;;;;;5051800;28;20323;-49
2022/10/27 01:08:14;;;;;;;4.87;3.70;;;11.10;99.90;;;;;;5050778;28;20198;-49
2022/10/27 01:10:41;;;;;;;5.97;4.10;;;11.10;99.90;;;;;;5051184;28;20267;-51
2022/10/27 01:13:08;;;;;;;3.97;3.20;;;11.10;99.90;;;;;;5050658;28;20221;-49
2022/10/27 01:15:42;;;;;;;4.10;2.93;;;11.00;99.90;;;;;;5044011;28;20232;-50
2022/10/27 01:18:18;;;;;;;6.70;4.23;;;10.90;99.90;;;;;;5032945;28;20197;-51
2022/10/27 01:21:22;;;;;;;3.20;3.00;;;10.90;99.90;;;;;;5037160;28;20267;-50
2022/10/27 01:24:20;;;;;;;2.90;2.50;;;11.00;99.90;;;;;;5037751;28;20211;-49
2022/10/27 01:26:50;;;;;;;4.60;3.07;;;10.90;99.90;;;;;;5041350;28;20299;-49
2022/10/27 01:29:55;;;;;;;4.33;2.83;;;10.80;99.90;;;;;;5044402;28;20212;-49
2022/10/27 01:32:30;;;;;;;5.77;2.97;;;10.70;99.90;;;;;;5042954;28;20666;-50
2022/10/27 01:35:04;;;;;;;4.77;2.40;;;10.80;99.90;;;;;;5032518;28;20212;-50
2022/10/27 01:37:38;;;;;;;3.77;2.57;;;10.80;99.90;;;;;;5031987;28;20236;-49
2022/10/27 01:40:12;;;;;;;4.17;2.20;;;10.80;99.90;;;;;;5039655;28;20268;-50
2022/10/27 01:42:46;;;;;;;2.47;1.90;;;10.80;99.90;;;;;;5042335;28;20815;-50
2022/10/27 01:45:16;;;;;;;4.57;2.13;;;10.90;99.90;;;;;;5045675;28;20213;-49
2022/10/27 01:47:44;;;;;;;4.80;2.33;;;10.90;99.90;;;;;;5040298;28;20212;-49
2022/10/27 01:50:11;;;;;;;2.67;1.83;;;10.90;99.90;;;;;;5039053;28;20205;-51
2022/10/27 01:52:44;;;;;;;4.30;2.00;;;10.90;99.90;;;;;;5038026;28;20225;-50
2022/10/27 01:55:17;;;;;;;2.20;1.93;;;10.90;99.90;;;;;;5038458;28;20251;-50
2022/10/27 01:58:02;;;;;;;4.50;2.13;;;10.90;99.90;;;;;;5031903;28;20209;-49
2022/10/27 02:00:33;;;;;;;2.20;2.10;;;10.90;99.90;;;;;;5039163;28;20200;-49
2022/10/27 02:03:08;;;;;;;2.47;1.93;;;10.90;99.90;;;;;;5049756;28;20285;-49
2022/10/27 02:05:43;;;;;;;4.00;2.27;;;10.90;99.90;;;;;;5042543;28;20200;-50
2022/10/27 02:08:18;;;;;;;2.53;2.23;;;10.90;99.90;;;;;;5031840;28;20791;-49
2022/10/27 02:10:53;;;;;;;3.63;2.07;;;10.80;99.90;;;;;;5046068;28;20250;-49
2022/10/27 02:13:21;;;;;;;5.37;1.93;;;10.90;99.90;;;;;;5043993;28;20408;-50
2022/10/27 02:15:53;;;;;;;4.67;1.87;;;11.00;99.90;;;;;;5049695;28;20231;-50
2022/10/27 02:18:26;;;;;;;3.73;2.10;;;11.00;99.90;;;;;;5044883;28;20217;-49
2022/10/27 02:20:59;;;;;;;5.47;2.20;;;11.10;99.90;;;;;;5050505;28;20211;-49
2022/10/27 02:23:26;;;;;;;3.13;2.03;;;11.10;99.90;;;;;;5050335;28;20205;-50
2022/10/27 02:25:59;;;;;;;4.40;2.27;;;11.10;99.90;;;;;;5046924;28;20271;-50
2022/10/27 02:28:32;;;;;;;5.00;2.57;;;11.10;99.90;;;;;;5045680;28;20204;-49
2022/10/27 02:31:01;;;;;;;3.73;2.70;;;11.10;99.90;;;;;;5039079;28;20210;-50
2022/10/27 02:33:29;;;;;;;3.63;3.33;;;11.20;99.90;;;;;;5030949;28;20221;-50
2022/10/27 02:35:57;;;;;;;3.27;2.27;;;11.00;99.90;;;;;;5031393;28;20234;-50
2022/10/27 02:38:24;;;;;;;2.77;1.97;;;10.90;99.90;;;;;;5035287;28;20335;-50
2022/10/27 02:40:51;;;;;;;2.10;1.70;;;10.80;99.90;;;;;;5040795;28;20204;-50
2022/10/27 02:43:18;;;;;;;3.50;2.20;;;10.80;99.90;;;;;;5042839;28;20205;-50
2022/10/27 02:45:45;;;;;;;1.60;1.50;;;10.70;99.90;;;;;;5033612;28;20229;-49
2022/10/27 02:48:12;;;;;;;5.13;2.33;;;10.60;99.90;;;;;;5032711;28;20204;-49
2022/10/27 02:50:40;;;;;;;7.30;2.33;;;10.70;99.90;;;;;;5044837;28;20281;-49
2022/10/27 02:53:07;;;;;;;2.73;1.67;;;10.60;99.90;;;;;;5043024;28;20220;-49
2022/10/27 02:55:34;;;;;;;2.30;1.47;;;10.70;99.90;;;;;;5045455;28;20201;-49
2022/10/27 02:58:01;;;;;;;6.77;2.10;;;10.70;99.90;;;;;;5050928;28;20216;-49
2022/10/27 03:00:28;;;;;;;7.83;1.80;;;10.70;99.90;;;;;;5042440;28;20200;-49
2022/10/27 03:02:55;;;;;;;3.87;2.30;;;10.90;99.90;;;;;;5045480;28;20259;-49
2022/10/27 03:05:22;;;;;;;4.77;2.00;;;10.90;99.90;;;;;;5048111;28;20199;-50
2022/10/27 03:07:51;;;;;;;5.07;1.87;;;10.80;99.90;;;;;;5053012;28;20290;-50
2022/10/27 03:10:18;;;;;;;5.23;2.50;;;10.90;99.90;;;;;;5045847;28;20637;-49
2022/10/27 03:12:46;;;;;;;3.70;2.80;;;10.90;99.90;;;;;;5037101;28;20259;-49
2022/10/27 03:15:13;;;;;;;4.97;2.47;;;10.90;99.90;;;;;;5034599;28;20758;-49
2022/10/27 03:17:44;;;;;;;7.00;1.77;;;10.90;99.90;;;;;;5034850;28;20225;-50
2022/10/27 03:20:12;;;;;;;5.47;2.20;;;10.80;99.90;;;;;;5042677;28;20653;-49
2022/10/27 03:22:40;;;;;;;1.77;1.63;;;10.70;99.90;;;;;;5051023;28;20214;-49
2022/10/27 03:25:10;;;;;;;7.43;2.40;;;10.70;99.90;;;;;;5048067;28;20252;-50
2022/10/27 03:27:39;;;;;;;5.67;1.83;;;10.70;99.90;;;;;;5047347;28;20227;-49
2022/10/27 03:30:08;;;;;;;4.43;2.00;;;10.70;99.90;;;;;;5038461;28;20213;-49
2022/10/27 03:32:35;;;;;;;3.73;1.93;;;10.80;99.90;;;;;;5049936;28;20231;-49
2022/10/27 03:35:02;;;;;;;3.00;1.67;;;10.80;99.90;;;;;;5048737;28;20275;-49
2022/10/27 03:37:29;;;;;;;3.07;2.43;;;10.80;99.90;;;;;;5044245;28;20232;-50
2022/10/27 03:39:56;;;;;;;1.57;1.23;;;10.80;99.90;;;;;;5040795;28;20208;-49
2022/10/27 03:42:24;;;;;;;1.40;1.10;;;10.80;99.90;;;;;;5051775;28;20666;-50
2022/10/27 03:44:51;;;;;;;6.63;2.13;;;10.80;99.90;;;;;;5034876;28;20752;-49
2022/10/27 03:47:18;;;;;;;6.47;1.50;;;10.80;99.90;;;;;;5051567;28;20216;-49
2022/10/27 03:49:45;;;;;;;1.40;1.37;;;10.80;99.90;;;;;;5046428;28;20291;-49
2022/10/27 03:52:12;;;;;;;3.37;2.27;;;10.90;99.90;;;;;;5040816;28;20578;-49
2022/10/27 03:54:39;;;;;;;2.53;1.97;;;10.90;99.90;;;;;;5048826;28;20213;-49
2022/10/27 03:57:06;;;;;;;4.60;2.57;;;10.90;99.90;;;;;;5051828;28;20806;-49
2022/10/27 03:59:35;;;;;;;1.63;1.53;;;10.70;99.90;;;;;;5051870;28;20201;-50
2022/10/27 04:02:02;;;;;;;5.07;2.07;;;10.70;99.90;;;;;;5044057;28;20213;-49
2022/10/27 04:04:29;;;;;;;5.27;2.07;;;10.70;99.90;;;;;;5044085;28;20615;-49
2022/10/27 04:06:56;;;;;;;2.37;1.90;;;10.70;99.90;;;;;;5050085;28;20294;-49
2022/10/27 04:09:23;;;;;;;2.40;1.87;;;10.60;99.90;;;;;;5035244;28;20245;-49
2022/10/27 04:11:50;;;;;;;4.40;1.60;;;10.60;99.90;;;;;;5033447;28;20193;-49
2022/10/27 04:14:17;;;;;;;3.97;2.60;;;10.50;99.90;;;;;;5036414;28;20220;-49
2022/10/27 04:16:50;;;;;;;2.27;1.97;;;10.40;99.90;;;;;;5052288;28;20294;-49
2022/10/27 04:19:17;;;;;;;3.63;1.60;;;10.40;99.90;;;;;;5052567;28;20216;-49
2022/10/27 04:21:44;;;;;;;12.70;2.50;;;10.30;99.90;;;;;;5045767;28;20720;-50
2022/10/27 04:24:12;;;;;;;2.40;1.60;;;10.20;99.90;;;;;;5043481;28;20203;-49
2022/10/27 04:26:39;;;;;;;2.03;1.80;;;10.20;99.90;;;;;;5050418;28;20246;-51
2022/10/27 04:29:06;;;;;;;3.43;1.87;;;10.20;99.90;;;;;;5046578;28;20262;-51
2022/10/27 04:31:33;;;;;;;3.10;2.00;;;10.20;99.90;;;;;;5051730;28;20201;-50
2022/10/27 04:34:02;;;;;;;1.83;1.73;;;10.20;99.90;;;;;;5051006;28;20216;-52
2022/10/27 04:36:30;;;;;;;3.67;1.90;;;10.20;99.90;;;;;;5049602;28;20231;-51
2022/10/27 04:38:57;;;;;;;5.37;1.93;;;10.20;99.90;;;;;;5042744;28;21612;-50
2022/10/27 04:41:24;;;;;;;6.20;2.70;;;10.30;99.90;;;;;;5040961;28;20200;-49
2022/10/27 04:43:54;;;;;;;6.67;2.47;;;10.30;99.90;;;;;;5040899;28;20201;-49
2022/10/27 04:46:21;;;;;;;5.07;2.50;;;10.40;99.90;;;;;;5051229;28;20266;-49
2022/10/27 04:48:48;;;;;;;3.73;2.30;;;10.50;99.90;;;;;;5051003;28;20208;-49
2022/10/27 04:51:17;;;;;;;3.13;2.23;;;10.60;99.90;;;;;;5051573;28;20655;-50
2022/10/27 04:53:44;;;;;;;2.97;2.30;;;10.70;99.90;;;;;;5043990;28;20241;-49
2022/10/27 04:56:11;;;;;;;2.90;2.47;;;10.70;99.90;;;;;;5049891;28;20220;-49
2022/10/27 04:58:38;;;;;;;5.20;2.57;;;10.80;99.90;;;;;;5038624;28;20201;-49
2022/10/27 05:01:09;;;;;;;6.70;3.33;;;10.90;99.90;;;;;;5039307;28;20210;-50
2022/10/27 05:03:36;;;;;;;2.97;2.47;;;10.90;99.90;;;;;;5044048;28;20200;-49
2022/10/27 05:06:03;;;;;;;6.30;2.60;;;11.00;99.90;;;;;;5042862;28;20235;-49
2022/10/27 05:08:32;;;;;;;5.53;2.37;;;11.00;99.90;;;;;;5045228;28;20225;-49
2022/10/27 05:10:59;;;;;;;6.17;2.70;;;11.00;99.90;;;;;;5044320;28;20213;-50
2022/10/27 05:13:26;;;;;;;5.00;2.23;;;11.00;99.90;;;;;;5045102;28;20222;-49
2022/10/27 05:15:53;;;;;;;4.87;3.43;;;11.10;99.90;;;;;;5049458;28;20274;-49
2022/10/27 05:18:20;;;;;;;6.90;1.97;;;11.00;99.90;;;;;;5051297;28;20196;-50
2022/10/27 05:20:47;;;;;;;6.17;2.63;;;11.00;99.90;;;;;;5048199;28;20204;-50
2022/10/27 05:23:14;;;;;;;4.70;2.97;;;11.00;99.90;;;;;;5046149;28;20266;-50
2022/10/27 05:25:43;;;;;;;2.87;2.53;;;11.00;99.90;;;;;;5047834;28;21115;-51
2022/10/27 05:28:11;;;;;;;4.40;2.40;;;11.00;99.90;;;;;;5044700;28;20204;-49
2022/10/27 05:30:38;;;;;;;2.80;2.70;;;10.90;99.90;;;;;;5039586;28;20296;-50
2022/10/27 05:33:05;;;;;;;3.23;2.50;;;10.80;99.90;;;;;;5040493;28;20209;-51
2022/10/27 05:35:32;;;;;;;5.63;2.33;;;10.80;99.90;;;;;;5035643;28;20594;-51
2022/10/27 05:37:59;;;;;;;5.83;3.00;;;10.80;99.90;;;;;;5049436;28;20291;-51
2022/10/27 05:40:33;;;;;;;3.43;2.63;;;10.80;99.90;;;;;;5049105;28;20223;-50
2022/10/27 05:43:02;;;;;;;3.97;2.90;;;10.70;99.90;;;;;;5042798;28;20286;-51
2022/10/27 05:45:30;;;;;;;9.90;3.77;;;10.70;99.90;;;;;;5046295;28;20266;-49
2022/10/27 05:47:58;;;;;;;7.80;3.27;;;10.70;99.90;;;;;;5042140;28;20286;-50
2022/10/27 05:50:26;;;;;;;3.93;3.53;;;10.60;99.90;;;;;;5050643;28;20288;-50
2022/10/27 05:52:53;;;;;;;7.00;3.70;;;10.60;99.90;;;;;;5050525;28;20212;-49
2022/10/27 05:55:20;;;;;;;4.40;4.00;;;10.60;99.90;;;;;;5048068;28;20223;-49
2022/10/27 05:57:53;;;;;;;6.27;3.77;;;10.60;99.90;;;;;;5039737;28;20200;-49
2022/10/27 06:00:22;;;;;;;4.00;3.63;;;10.60;99.90;;;;;;5037135;28;20231;-51
2022/10/27 06:02:49;;;;;;;6.43;3.80;;;10.50;99.90;;;;;;5039850;28;20200;-49
2022/10/27 06:05:17;;;;;;;6.33;4.60;;;10.50;99.90;;;;;;5036569;28;20204;-49
2022/10/27 06:07:44;;;;;;;4.23;3.17;;;10.50;99.90;;;;;;5043156;28;20220;-51
2022/10/27 06:10:11;;;;;;;3.60;3.13;;;10.60;99.90;;;;;;5049760;28;20266;-49
2022/10/27 06:12:38;;;;;;;4.87;2.87;;;10.60;99.90;;;;;;5048658;28;20205;-49
2022/10/27 06:15:05;;;;;;;4.73;3.27;;;10.70;99.90;;;;;;5043465;28;20226;-49
2022/10/27 06:17:34;;;;;;;4.57;3.10;;;10.80;99.90;;;;;;5040103;28;20228;-50
2022/10/27 06:20:01;;;;;;;4.07;3.20;;;10.80;99.90;;;;;;5041929;28;20197;-49
2022/10/27 06:22:28;;;;;;;5.83;3.03;;;10.90;99.90;;;;;;5042484;28;20200;-51
2022/10/27 06:24:55;;;;;;;9.40;2.67;;;11.00;99.90;;;;;;5042928;28;20198;-49
2022/10/27 06:27:22;;;;;;;3.50;3.13;;;11.10;99.90;;;;;;5041190;28;20220;-49
2022/10/27 06:29:49;;;;;;;8.80;3.30;;;11.10;99.90;;;;;;5051240;28;20216;-50
2022/10/27 06:32:16;;;;;;;4.87;3.33;;;11.20;99.90;;;;;;5050300;28;20220;-50
2022/10/27 06:34:45;;;;;;;5.47;4.77;;;11.30;99.90;;;;;;5047853;28;20217;-50
2022/10/27 06:37:12;;;;;;;5.80;4.30;;;11.30;99.90;;;;;;5049017;28;20239;-49
2022/10/27 06:39:40;;;;;;;8.20;5.03;;;11.40;99.90;;;;;;5045355;28;20196;-49
2022/10/27 06:42:07;;;;;;;5.40;4.20;;;11.40;99.90;;;;;;5053021;28;20208;-49
2022/10/27 06:44:34;;;;;;;4.13;3.20;;;11.50;99.90;;;;;;5053651;28;20293;-49
2022/10/27 06:47:01;;;;;;;6.10;3.20;;;11.50;99.90;;;;;;5042926;28;20214;-52
2022/10/27 06:49:28;;;;;;;3.60;3.20;;;11.60;99.90;;;;;;5050889;28;20260;-51
2022/10/27 06:51:59;;;;;;;3.17;2.20;;;11.60;99.90;;;;;;5044805;28;20207;-49
2022/10/27 06:54:26;;;;;;;3.73;2.63;;;11.60;99.90;;;;;;5044795;28;20314;-49
2022/10/27 06:56:53;;;;;;;2.67;2.47;;;11.70;99.90;;;;;;5042318;28;20317;-50
2022/10/27 06:59:20;;;;;;;3.63;2.97;;;11.80;99.90;;;;;;5049284;28;20217;-49
2022/10/27 07:01:47;;;;;;;5.57;4.00;;;11.90;99.90;;;;;;5047386;28;20268;-49
2022/10/27 07:04:14;;;;;;;8.67;4.03;;;11.90;99.90;;;;;;5050070;28;20213;-49
2022/10/27 07:06:41;;;;;;;8.27;4.30;;;12.10;99.90;;;;;;5045507;28;20220;-49
2022/10/27 07:09:11;;;;;;;5.23;4.53;;;12.20;99.90;;;;;;5045665;28;20201;-49
2022/10/27 07:11:39;;;;;;;11.47;4.57;;;12.30;99.90;;;;;;5049253;28;20255;-49
2022/10/27 07:14:06;;;;;;;6.03;4.43;;;12.40;99.90;;;;;;5040313;28;20205;-49
2022/10/27 07:16:33;;;;;;;6.23;3.67;;;12.50;99.90;;;;;;5035693;28;20249;-49
2022/10/27 07:19:00;;;;;;;7.53;3.93;;;12.50;99.90;;;;;;5053100;28;20198;-49
2022/10/27 07:21:27;;;;;;;4.27;3.87;;;12.60;99.90;;;;;;5054521;28;20205;-49
2022/10/27 07:23:57;;;;;;;5.83;5.17;;;12.70;99.90;;;;;;5054226;28;20606;-49
2022/10/27 07:26:26;;;;;;;10.57;3.80;;;12.80;99.90;;;;;;5034758;28;20633;-50
2022/10/27 07:28:55;;;;;;;6.43;4.27;;;12.90;99.90;;;;;;5046008;28;20587;-49
2022/10/27 07:31:22;;;;;;;5.20;4.57;;;12.90;99.90;;;;;;5046685;28;20201;-49
2022/10/27 07:33:52;;;;;;;9.07;4.07;;;13.00;99.90;;;;;;5052686;28;20213;-50
2022/10/27 07:36:19;;;;;;;10.30;4.77;;;13.20;99.90;;;;;;5053948;28;20858;-49
2022/10/27 07:38:46;;;;;;;13.43;6.53;;;13.40;99.90;;;;;;5053143;28;20217;-50
2022/10/27 07:41:13;;;;;;;8.03;5.00;;;13.50;99.90;;;;;;5052451;28;20198;-50
2022/10/27 07:43:42;;;;;;;7.60;4.30;;;13.60;99.90;;;;;;5052679;28;20201;-50
2022/10/27 07:46:09;;;;;;;7.40;3.97;;;13.70;99.90;;;;;;5052711;28;20221;-49
2022/10/27 07:48:36;;;;;;;7.60;3.73;;;13.80;99.90;;;;;;5052481;28;20198;-49
2022/10/27 07:51:03;;;;;;;6.50;3.70;;;13.90;99.90;;;;;;5053195;28;20259;-49
2022/10/27 07:53:30;;;;;;;4.37;3.50;;;14.00;99.90;;;;;;5046731;28;20383;-50
2022/10/27 07:55:58;;;;;;;3.00;2.80;;;14.10;99.90;;;;;;5040211;28;20777;-50
2022/10/27 07:58:26;;;;;;;7.80;3.63;;;14.30;99.90;;;;;;5043259;28;20229;-49
2022/10/27 08:00:55;;;;;;;6.77;4.00;;;14.60;99.90;;;;;;5048468;28;20195;-49
2022/10/27 08:03:24;;;;;;;9.70;4.90;;;14.80;99.90;;;;;;5048832;28;20268;-49
2022/10/27 08:05:52;;;;;;;11.57;3.80;;;15.00;99.90;;;;;;5051514;28;20215;-49
2022/10/27 08:08:20;;;;;;;6.83;3.50;;;15.10;99.90;;;;;;5053073;28;20198;-49
2022/10/27 08:10:49;;;;;;;7.23;3.30;;;15.30;99.90;;;;;;5052946;28;20194;-49
2022/10/27 08:13:17;;;;;;;8.60;3.37;;;15.50;99.90;;;;;;5047334;28;20206;-49
2022/10/27 08:15:44;;;;;;;5.67;3.40;;;15.60;99.90;;;;;;5041655;28;20229;-50
2022/10/27 08:18:13;;;;;;;6.43;3.20;;;15.70;99.90;;;;;;5046374;28;20675;-49
2022/10/27 08:20:41;;;;;;;5.63;2.97;;;15.90;99.90;;;;;;5054084;28;20249;-49
2022/10/27 08:23:11;;;;;;;7.23;3.00;;;16.00;99.90;;;;;;5046116;28;20210;-49
2022/10/27 08:25:38;;;;;;;2.80;2.30;;;16.20;99.90;;;;;;5044948;28;20618;-50
2022/10/27 08:28:06;;;;;;;3.30;1.60;;;16.30;99.90;;;;;;5042625;28;20206;-49
2022/10/27 08:30:34;;;;;;;2.33;1.30;;;16.40;99.90;;;;;;5045137;28;20245;-49
2022/10/27 08:33:02;;;;;;;3.57;1.50;;;16.40;99.90;;;;;;5042599;28;20671;-49
2022/10/27 08:35:32;;;;;;;3.47;1.57;;;16.50;99.90;;;;;;5041223;28;20209;-49
2022/10/27 08:38:00;;;;;;;3.70;2.17;;;16.60;99.90;;;;;;5050790;28;20204;-49
2022/10/27 08:40:34;;;;;;;1.50;1.37;;;16.60;99.90;;;;;;5046026;28;20331;-49
2022/10/27 08:43:08;;;;;;;2.83;1.10;;;16.70;99.90;;;;;;5051300;28;20193;-50
2022/10/27 08:45:47;;;;;;;5.53;1.10;;;16.80;99.90;;;;;;5051325;28;20198;-50
2022/10/27 08:48:23;;;;;;;3.80;1.47;;;17.50;99.90;;;;;;5042914;28;20209;-49
2022/10/27 08:50:52;;;;;;;1.67;1.17;;;18.80;99.90;;;;;;5041187;28;20198;-50
2022/10/27 08:53:27;;;;;;;3.67;1.20;;;20.10;99.90;;;;;;5040486;28;20209;-49
2022/10/27 08:56:02;;;;;;;2.30;0.70;;;21.40;99.90;;;;;;5042053;28;20756;-51
2022/10/27 08:58:36;;;;;;;1.40;0.90;;;22.30;99.90;;;;;;5042428;28;20198;-51
2022/10/27 09:01:12;;;;;;;1.20;1.10;;;23.00;99.90;;;;;;5041949;28;20205;-50
2022/10/27 09:04:18;;;;;;;1.27;0.93;;;23.50;99.90;;;;;;5036966;28;20206;-50
2022/10/27 09:06:59;;;;;;;2.57;1.00;;;23.70;99.90;;;;;;5014773;28;20236;-51
2022/10/27 09:09:33;;;;;;;3.80;1.17;;;23.60;99.90;;;;;;5045408;28;20198;-51
2022/10/27 09:12:09;;;;;;;8.10;1.50;;;23.70;99.90;;;;;;5042893;28;20202;-50
2022/10/27 09:15:08;;;;;;;3.53;1.03;;;23.70;99.90;;;;;;5041763;28;20202;-50
2022/10/27 09:17:39;;;;;;;1.33;0.83;;;24.00;99.90;;;;;;5036326;28;20229;-51
2022/10/27 09:20:16;;;;;;;2.43;1.07;;;24.10;99.90;;;;;;5040333;28;20672;-50
2022/10/27 09:22:44;;;;;;;1.20;0.90;;;24.20;99.90;;;;;;5044935;28;20201;-51
2022/10/27 09:25:16;;;;;;;6.80;1.03;;;24.40;99.90;;;;;;5038441;28;20198;-50
2022/10/27 09:27:45;;;;;;;3.37;1.20;;;24.40;99.90;;;;;;5037709;28;20268;-50
2022/10/27 09:30:14;;;;;;;3.27;1.83;;;24.30;99.90;;;;;;5044601;28;20271;-51
2022/10/27 09:32:46;;;;;;;2.00;0.93;;;24.40;99.90;;;;;;5044518;28;20206;-51
2022/10/27 09:35:15;;;;;;;7.20;1.50;;;24.70;99.90;;;;;;5038088;28;20226;-50
2022/10/27 09:37:44;;;;;;;3.17;1.17;;;24.30;99.90;;;;;;5038506;28;20221;-52
2022/10/27 09:40:13;;;;;;;2.00;1.27;;;24.30;99.90;;;;;;5044261;28;20206;-51
2022/10/27 09:42:41;;;;;;;2.77;1.20;;;24.60;99.90;;;;;;5045939;28;20263;-50
2022/10/27 09:45:15;;;;;;;14.77;2.57;;;25.00;99.90;;;;;;5038040;28;20261;-51
2022/10/27 09:47:46;;;;;;;1.90;1.20;;;25.10;99.90;;;;;;5049782;28;20315;-51
2022/10/27 09:50:20;;;;;;;2.43;0.97;;;25.20;99.90;;;;;;5044315;28;20891;-51
2022/10/27 09:52:48;;;;;;;6.13;3.03;;;25.10;99.90;;;;;;5048646;28;20693;-50
2022/10/27 09:55:16;;;;;;;5.13;3.43;;;25.00;99.90;;;;;;5044625;28;20742;-49
2022/10/27 09:57:46;;;;;;;5.97;3.00;;;24.20;99.90;;;;;;5035896;28;20275;-51
2022/10/27 10:00:26;;;;;;;10.90;3.27;;;24.10;99.90;;;;;;5047304;28;20201;-51
2022/10/27 10:03:01;;;;;;;5.20;3.73;;;23.70;99.90;;;;;;5042544;28;20197;-50
2022/10/27 10:05:30;;;;;;;3.60;3.30;;;24.00;99.90;;;;;;5050216;28;20203;-51
2022/10/27 10:08:20;;;;;;;4.53;3.10;;;23.70;99.90;;;;;;5042408;28;20202;-51
2022/10/27 10:10:56;;;;;;;3.57;3.00;;;23.40;99.90;;;;;;5045063;28;20206;-51
2022/10/27 10:13:24;;;;;;;3.93;3.73;;;23.10;99.90;;;;;;5048429;28;20671;-52
2022/10/27 10:16:07;;;;;;;3.40;2.93;;;23.30;99.90;;;;;;5032314;28;20218;-50
2022/10/27 10:18:35;;;;;;;3.23;2.77;;;23.60;99.90;;;;;;5042178;28;20807;-52
2022/10/27 10:21:04;;;;;;;5.17;3.73;;;23.90;99.90;;;;;;5046897;28;20202;-50
2022/10/27 10:23:35;;;;;;;6.33;4.40;;;23.80;99.90;;;;;;5044347;28;20259;-50
2022/10/27 10:26:05;;;;;;;5.47;4.13;;;23.00;99.90;;;;;;5037194;28;20531;-51
2022/10/27 10:28:35;;;;;;;5.57;4.03;;;22.80;99.90;;;;;;5042102;28;20209;-50
2022/10/27 10:31:04;;;;;;;3.63;3.07;;;22.60;99.90;;;;;;5034604;28;20213;-50
2022/10/27 10:33:35;;;;;;;6.00;3.50;;;22.40;99.90;;;;;;5036413;28;20205;-50
2022/10/27 10:36:18;;;;;;;4.93;3.60;;;22.10;99.90;;;;;;5039479;28;20221;-50
2022/10/27 10:38:55;;;;;;;5.67;3.73;;;21.90;99.90;;;;;;5044770;28;20226;-50
2022/10/27 10:41:23;;;;;;;8.93;3.67;;;21.10;99.90;;;;;;5049479;28;20247;-50
2022/10/27 10:44:08;;;;;;;4.43;3.90;;;20.40;99.90;;;;;;5038866;28;20688;-49
2022/10/27 10:46:39;;;;;;;9.73;3.90;;;20.10;99.90;;;;;;5039290;28;20221;-49
2022/10/27 10:49:17;;;;;;;8.13;3.87;;;20.20;99.90;;;;;;5035142;28;20228;-50
2022/10/27 10:51:51;;;;;;;5.57;3.23;;;20.10;99.90;;;;;;5042349;28;20202;-50
2022/10/27 10:54:25;;;;;;;5.70;3.60;;;20.10;99.90;;;;;;5048851;28;20205;-49
2022/10/27 10:56:53;;;;;;;4.43;3.73;;;20.30;99.90;;;;;;5047749;28;20226;-49
2022/10/27 10:59:24;;;;;;;5.90;4.77;;;20.30;99.90;;;;;;5044951;28;20209;-50
2022/10/27 11:01:55;;;;;;;3.67;3.37;;;20.20;99.90;;;;;;5040943;28;20198;-50
2022/10/27 11:04:25;;;;;;;3.90;3.60;;;20.20;99.90;;;;;;5045768;28;20217;-49
2022/10/27 11:07:00;;;;;;;5.93;4.60;;;20.10;99.90;;;;;;5048704;28;20645;-49
2022/10/27 11:09:34;;;;;;;4.13;3.67;;;20.10;99.90;;;;;;5040733;28;20224;-49
2022/10/27 11:12:03;;;;;;;4.87;4.47;;;19.90;99.90;;;;;;5048997;28;20254;-49
2022/10/27 11:14:30;;;;;;;3.87;3.57;;;19.70;99.90;;;;;;5051266;28;20552;-50
2022/10/27 11:17:03;;;;;;;5.20;4.30;;;19.60;99.90;;;;;;5051924;28;20221;-50
2022/10/27 11:19:39;;;;;;;5.73;4.03;;;19.60;99.90;;;;;;5051145;28;20198;-50
2022/10/27 11:22:12;;;;;;;6.93;4.60;;;19.50;99.90;;;;;;5051182;28;20205;-50
2022/10/27 11:24:47;;;;;;;6.23;4.67;;;19.50;99.90;;;;;;5052982;28;20312;-50
2022/10/27 11:27:17;;;;;;;5.30;4.00;;;19.30;99.90;;;;;;5052097;28;20217;-49
2022/10/27 11:29:51;;;;;;;5.23;4.10;;;19.30;99.90;;;;;;5046532;28;20198;-49
2022/10/27 11:32:24;;;;;;;8.77;4.57;;;19.00;99.90;;;;;;5049322;28;20221;-49
2022/10/27 11:34:58;;;;;;;6.20;5.00;;;19.00;99.90;;;;;;5049394;28;20201;-50
2022/10/27 11:37:33;;;;;;;5.93;4.33;;;19.00;99.90;;;;;;5044152;28;20223;-49
2022/10/27 11:40:07;;;;;;;5.97;4.00;;;18.90;99.90;;;;;;5044794;28;20242;-49
2022/10/27 11:42:42;;;;;;;6.03;4.43;;;18.80;99.90;;;;;;5052976;28;20201;-49
2022/10/27 11:45:18;;;;;;;5.70;3.53;;;18.90;99.90;;;;;;5052874;28;20202;-49
2022/10/27 11:47:48;;;;;;;5.60;3.47;;;18.90;99.90;;;;;;5052041;28;20221;-49
2022/10/27 11:50:21;;;;;;;7.27;4.07;;;18.80;99.90;;;;;;5047595;28;20213;-49
2022/10/27 11:52:51;;;;;;;4.07;3.77;;;18.80;99.90;;;;;;5049463;28;20204;-50
2022/10/27 11:55:24;;;;;;;4.43;4.10;;;18.80;99.90;;;;;;5034051;28;20207;-49
2022/10/27 11:57:59;;;;;;;8.50;4.50;;;18.80;99.90;;;;;;5039119;28;20599;-49
2022/10/27 12:00:29;;;;;;;4.57;4.13;;;18.80;99.90;;;;;;5043771;28;20198;-50
2022/10/27 12:03:31;;;;;;;4.67;4.10;;;18.70;99.90;;;;;;5052427;28;20224;-49
2022/10/27 12:06:01;;;;;;;5.07;4.43;;;18.80;99.90;;;;;;5052281;28;20217;-50
2022/10/27 12:08:37;;;;;;;8.13;4.50;;;18.90;99.90;;;;;;5051666;28;20194;-50
2022/10/27 12:11:17;;;;;;;5.23;3.97;;;18.80;99.90;;;;;;5041042;28;20548;-50
2022/10/27 12:13:53;;;;;;;5.73;4.73;;;18.80;99.90;;;;;;5032814;28;20194;-50
2022/10/27 12:16:27;;;;;;;7.17;4.50;;;18.80;99.90;;;;;;5032978;28;20268;-50
2022/10/27 12:19:00;;;;;;;14.77;5.37;;;18.70;99.90;;;;;;5043943;28;20202;-49
2022/10/27 12:21:34;;;;;;;7.37;4.70;;;18.70;99.90;;;;;;5047521;28;20220;-50
2022/10/27 12:24:04;;;;;;;12.30;5.10;;;18.70;99.90;;;;;;5048975;28;20198;-50
2022/10/27 12:26:37;;;;;;;7.53;3.80;;;18.70;99.90;;;;;;5032221;28;20280;-50
2022/10/27 12:29:07;;;;;;;4.40;3.83;;;18.70;99.90;;;;;;5049125;28;20202;-51
2022/10/27 12:31:39;;;;;;;5.57;4.50;;;18.80;99.90;;;;;;5036129;28;20241;-50
2022/10/27 12:34:08;;;;;;;5.07;4.60;;;18.80;99.90;;;;;;5032689;28;20267;-50
2022/10/27 12:36:41;;;;;;;9.10;4.93;;;18.80;99.90;;;;;;5032458;28;20218;-51
2022/10/27 12:39:18;;;;;;;4.90;4.40;;;18.80;99.90;;;;;;5043390;28;20248;-50
2022/10/27 12:41:52;;;;;;;13.60;5.47;;;18.70;99.90;;;;;;5049499;28;20683;-51
2022/10/27 12:44:32;;;;;;;4.40;3.70;;;18.70;99.90;;;;;;5050361;28;20255;-50
2022/10/27 12:47:20;;;;;;;4.27;3.80;;;18.80;99.90;;;;;;5032520;28;20265;-49
2022/10/27 12:49:56;;;;;;;7.30;4.07;;;18.90;99.90;;;;;;5041677;28;20240;-50
2022/10/27 12:52:26;;;;;;;4.77;4.20;;;18.80;99.90;;;;;;5048157;28;20235;-51
2022/10/27 12:55:12;;;;;;;8.33;4.57;;;18.80;99.90;;;;;;5033102;28;20194;-50
2022/10/27 12:57:50;;;;;;;8.23;5.13;;;18.80;99.90;;;;;;5035554;28;20244;-50
2022/10/27 13:00:19;;;;;;;4.63;3.80;;;18.70;99.90;;;;;;5042132;28;20202;-50
2022/10/27 13:02:58;;;;;;;6.43;3.57;;;18.60;99.90;;;;;;5047675;28;20217;-50